Baltic Champion — 9HGN9 — position and weather

sailwx.info

Track history (hours):
 
Tides and Currents Weather Stations Pressure Air Temp Water Temp Dewpoint Dewpoint Depression Visibility Wind Speed Wind Dir Waves Ship Positions

Baltic Champion

Last reported at 2017-Nov-24 10:49 UTC. Time now 2017-Nov-24 11:24 UTC.
Position N 36°23' E 014°55'.

Length 182 m; draft 7 m.

Type: Ship. MMSI: 256960000.

Date/timePositionNaut miles runAvg speedWind from/ knotsBaromVisibWave heightAir tempDewpointWater temp
2017-Nov-24 10:49N 36°23' E 014°55'511.9
2017-Nov-24 10:24N 36°23' E 014°49'511.7
2017-Nov-24 10:00N 36°22' E 014°43'611.6
2017-Nov-24 09:30N 36°21' E 014°36'611.5
2017-Nov-24 09:00N 36°20' E 014°29'611.5
2017-Nov-24 08:30N 36°19' E 014°22'611.5
2017-Nov-24 08:00N 36°19' E 014°15'612.3
2017-Nov-24 07:30N 36°20' E 014°07'713.4
2017-Nov-24 07:00N 36°21' E 013°59'611.6
2017-Nov-24 06:30N 36°22' E 013°52'28411.3
2017-Nov-23 05:26N 38°05' E 008°19'  
2017-Nov-19 15:12N 37°45' W 000°21'211.4
2017-Nov-19 15:00N 37°43' W 000°23'611.4
2017-Nov-19 14:30N 37°38' W 000°27'611.2
2017-Nov-19 13:58N 37°34' W 000°31'810.2
2017-Nov-19 13:12N 37°31' W 000°41'211.7
2017-Nov-19 13:00N 37°31' W 000°43'913.8
2017-Nov-19 12:22N 37°31' W 000°55'  
2017-Nov-15 16:31N 37°23' W 001°07'0 2.5
2017-Nov-15 16:30N 37°23' W 001°07'20710.6
2017-Nov-14 20:59N 36°05' W 005°06'612.1
2017-Nov-14 20:30N 36°05' W 005°14'611.1
2017-Nov-14 19:58N 36°05' W 005°21'  
Track history (hours):
 
Tides and Currents Weather Stations Pressure Air Temp Water Temp Dewpoint Dewpoint Depression Visibility Wind Speed Wind Dir Waves Ship Positions

Baltic Champion

Last reported at 2017-Nov-24 10:49 UTC. Time now 2017-Nov-24 11:24 UTC.
Position N 36°23' E 014°55'.

Length 182 m; draft 7 m.

Type: Ship. MMSI: 256960000.

Date/timePositionNaut miles runAvg speedWind from/ knotsBaromVisibWave heightAir tempDewpointWater temp
2017-Nov-24 10:49N 36°23' E 014°55'511.9
2017-Nov-24 10:24N 36°23' E 014°49'511.7
2017-Nov-24 10:00N 36°22' E 014°43'611.6
2017-Nov-24 09:30N 36°21' E 014°36'611.5
2017-Nov-24 09:00N 36°20' E 014°29'611.5
2017-Nov-24 08:30N 36°19' E 014°22'611.5
2017-Nov-24 08:00N 36°19' E 014°15'612.3
2017-Nov-24 07:30N 36°20' E 014°07'713.4
2017-Nov-24 07:00N 36°21' E 013°59'611.6
2017-Nov-24 06:30N 36°22' E 013°52'28411.3
2017-Nov-23 05:26N 38°05' E 008°19'  
2017-Nov-19 15:12N 37°45' W 000°21'211.4
2017-Nov-19 15:00N 37°43' W 000°23'611.4
2017-Nov-19 14:30N 37°38' W 000°27'611.2
2017-Nov-19 13:58N 37°34' W 000°31'810.2
2017-Nov-19 13:12N 37°31' W 000°41'211.7
2017-Nov-19 13:00N 37°31' W 000°43'913.8
2017-Nov-19 12:22N 37°31' W 000°55'  
2017-Nov-15 16:31N 37°23' W 001°07'0 2.5
2017-Nov-15 16:30N 37°23' W 001°07'20710.6
2017-Nov-14 20:59N 36°05' W 005°06'612.1
2017-Nov-14 20:30N 36°05' W 005°14'611.1
2017-Nov-14 19:58N 36°05' W 005°21'  

Dump ship's entire track history